Time;durP1;ratioP1;P1;durP2;ratioP2;P2;SDS_P1;SDS_P2;PMS_P1;PMS_P2;Temp;Humidity;BMP_temperature;BMP_pressure;BME280_temperature;BME280_humidity;BME280_pressure;Samples;Min_cycle;Max_cycle;Signal;HPM_P1;HPM_P2
2021/09/28 01:52:21;;;;;;;;;;;;;;;;;;;;;
2021/09/28 01:59:23;;;;;;;;;;;;;;;;;;;;;
2021/09/28 02:03:06;;;;;;;;;;;;;;;;;;;;;
2021/09/28 02:12:26;;;;;;;7.83;3.90;;;13.30;99.90;;;;;;5017603;28;20446;-94
2021/09/28 02:15:41;;;;;;;4.13;3.80;;;15.30;99.90;;;;;;4958813;28;20419;-94
2021/09/28 02:18:29;;;;;;;4.30;3.90;;;12.20;99.90;;;;;;5016544;28;20442;-95
2021/09/28 02:24:55;;;;;;;4.50;4.10;;;13.70;99.90;;;;;;5034870;28;20412;-93
2021/09/28 02:37:52;;;;;;;7.00;3.97;;;12.90;99.90;;;;;;5016615;28;20447;-94
2021/09/28 02:43:36;;;;;;;9.20;3.67;;;12.50;99.90;;;;;;5010218;28;20473;-95
2021/09/28 02:46:50;;;;;;;5.70;4.23;;;12.50;99.90;;;;;;4997963;28;20457;-94
2021/09/28 02:50:18;;;;;;;;;;;;;;;;;;;;;
2021/09/28 02:55:55;;;;;;;11.30;4.23;;;14.00;99.90;;;;;;4834580;29;20431;-94
2021/09/28 02:59:19;;;;;;;;;;;;;;;;;;;;;
2021/09/28 03:01:47;;;;;;;9.50;3.60;;;12.60;99.90;;;;;;4920260;29;20440;-94
2021/09/28 03:04:57;;;;;;;8.43;3.90;;;13.30;99.90;;;;;;4938013;29;20404;-94
2021/09/28 03:08:28;;;;;;;4.17;2.83;;;13.10;99.90;;;;;;4917795;29;20432;-94
2021/09/28 03:13:54;;;;;;;11.57;5.17;;;13.10;99.90;;;;;;4932817;29;20434;-94
2021/09/28 03:16:55;;;;;;;5.90;3.10;;;12.30;99.90;;;;;;4921468;29;20427;-94
2021/09/28 03:19:57;;;;;;;8.90;3.50;;;13.50;99.90;;;;;;4945151;28;20496;-94
2021/09/28 03:22:45;;;;;;;12.83;3.90;;;13.00;99.90;;;;;;5009373;28;20444;-93
2021/09/28 03:25:33;;;;;;;8.40;4.10;;;12.40;99.90;;;;;;5007294;28;20435;-94
2021/09/28 03:28:18;;;;;;;;;;;;;;;;;;;;;
2021/09/28 03:31:08;;;;;;;13.93;4.60;;;12.50;99.90;;;;;;5013944;28;20437;-95
2021/09/28 03:34:14;;;;;;;9.50;4.00;;;12.30;99.90;;;;;;5010975;28;20421;-94
2021/09/28 03:37:14;;;;;;;5.60;3.30;;;12.30;99.90;;;;;;5011668;28;20400;-94
2021/09/28 03:40:36;;;;;;;;;;;;;;;;;;;;;
2021/09/28 03:43:26;;;;;;;;;;;;;;;;;;;;;
2021/09/28 03:46:26;;;;;;;;;;;;;;;;;;;;;
2021/09/28 03:48:55;;;;;;;12.43;4.90;;;12.80;99.90;;;;;;5012533;28;20429;-94
2021/09/28 03:58:15;;;;;;;;;;;;;;;;;;;;;
2021/09/28 04:00:47;;;;;;;7.10;4.00;;;14.20;99.90;;;;;;4992781;28;20499;-94
2021/09/28 04:03:30;;;;;;;;;;;;;;;;;;;;;
2021/09/28 04:09:33;;;;;;;9.47;4.57;;;12.80;99.90;;;;;;4998406;28;20417;-93
2021/09/28 04:12:37;;;;;;;11.33;4.90;;;11.80;99.90;;;;;;4995435;28;20473;-93
2021/09/28 04:15:52;;;;;;;8.20;4.20;;;12.40;99.90;;;;;;4980778;28;20477;-95
2021/09/28 04:18:30;;;;;;;6.33;4.30;;;12.50;99.90;;;;;;4978731;28;20425;-94
2021/09/28 04:21:42;;;;;;;;;;;;;;;;;;;;;
2021/09/28 04:24:39;;;;;;;5.10;3.97;;;13.60;99.90;;;;;;4990461;28;20968;-94
2021/09/28 04:30:38;;;;;;;10.17;4.37;;;12.00;99.90;;;;;;5053003;23;20504;-94
2021/09/28 04:36:24;;;;;;;4.23;3.50;;;12.00;99.90;;;;;;5112529;23;20508;-88
2021/09/28 04:39:29;;;;;;;;;;;;;;;;;;;;;
2021/09/28 04:42:32;;;;;;;12.60;5.27;;;12.00;99.90;;;;;;4993926;28;20448;-94
2021/09/28 04:48:44;;;;;;;;;;;;;;;;;;;;;
2021/09/28 04:51:36;;;;;;;7.67;4.23;;;12.10;99.90;;;;;;5072850;23;20264;-95
2021/09/28 04:54:13;;;;;;;11.43;4.20;;;12.80;99.90;;;;;;4992026;28;20426;-95
2021/09/28 04:57:21;;;;;;;;;;;;;;;;;;;;;
2021/09/28 05:00:33;;;;;;;6.13;4.23;;;11.80;99.90;;;;;;5182144;23;20572;-93
2021/09/28 05:03:37;;;;;;;6.70;4.40;;;11.70;99.90;;;;;;4993864;28;20459;-93
2021/09/28 05:06:32;;;;;;;6.13;4.30;;;12.70;99.90;;;;;;4974765;28;20433;-94
2021/09/28 05:09:27;;;;;;;5.45;4.30;;;12.20;99.90;;;;;;4979116;28;20437;-92
2021/09/28 05:12:20;;;;;;;4.43;3.87;;;11.60;99.90;;;;;;4994714;28;20174;-93
2021/09/28 05:15:21;;;;;;;;;;;;;;;;;;;;;
2021/09/28 05:17:50;;;;;;;8.77;3.97;;;12.50;99.90;;;;;;4988072;28;20469;-93
2021/09/28 05:20:22;;;;;;;10.23;4.50;;;11.90;99.90;;;;;;4963681;29;20477;-92
2021/09/28 05:22:51;;;;;;;6.47;5.73;;;11.70;99.90;;;;;;4974059;28;20425;-94
2021/09/28 05:25:37;;;;;;;;;;;;;;;;;;;;;
2021/09/28 05:28:03;;;;;;;6.43;4.90;;;13.40;99.90;;;;;;4985817;28;20489;-90
2021/09/28 05:30:44;;;;;;;6.03;4.63;;;11.80;99.90;;;;;;4984967;28;20448;-95
2021/09/28 05:33:14;;;;;;;7.43;5.50;;;11.80;99.90;;;;;;4968032;28;20449;-90
2021/09/28 05:35:40;;;;;;;8.25;6.75;;;11.60;99.90;;;;;;4987010;28;20432;-90
2021/09/28 05:38:06;;;;;;;12.93;5.23;;;11.60;99.90;;;;;;4966257;28;20645;-92
2021/09/28 05:41:14;;;;;;;;;;;;;;;;;;;;;
2021/09/28 05:43:58;;;;;;;;;;;;;;;;;;;;;
2021/09/28 05:46:24;;;;;;;7.93;4.50;;;15.10;99.90;;;;;;4966596;28;20290;-89
2021/09/28 05:48:52;;;;;;;10.17;6.27;;;11.60;99.90;;;;;;4968270;28;20453;-92
2021/09/28 05:51:27;;;;;;;9.13;5.30;;;12.90;99.90;;;;;;4986195;28;20176;-93
2021/09/28 05:53:57;;;;;;;18.17;5.40;;;10.70;99.90;;;;;;4967007;28;20432;-91
2021/09/28 05:56:47;;;;;;;11.73;4.30;;;11.70;99.90;;;;;;4985781;28;20441;-88
2021/09/28 05:59:13;;;;;;;14.37;5.00;;;11.80;99.90;;;;;;4954443;28;20524;-91
2021/09/28 06:01:46;;;;;;;11.90;4.60;;;11.60;99.90;;;;;;4967514;28;20484;-92
2021/09/28 06:04:26;;;;;;;6.43;4.13;;;11.60;99.90;;;;;;4966264;28;20421;-91
2021/09/28 06:06:52;;;;;;;10.27;5.50;;;11.80;99.90;;;;;;4999972;28;20923;-88
2021/09/28 06:09:38;;;;;;;;;;;;;;;;;;;;;
2021/09/28 06:12:34;;;;;;;14.13;4.90;;;12.50;99.90;;;;;;5007053;28;20269;-93
2021/09/28 06:15:02;;;;;;;8.07;4.40;;;12.00;99.90;;;;;;5001880;28;20460;-94
2021/09/28 06:17:28;;;;;;;7.23;3.77;;;13.40;99.90;;;;;;5004595;28;20435;-89
2021/09/28 06:20:08;;;;;;;6.37;4.67;;;11.70;99.90;;;;;;4986245;28;20468;-93
2021/09/28 06:22:44;;;;;;;9.07;3.67;;;12.20;99.90;;;;;;5003641;28;20180;-94
2021/09/28 06:26:11;;;;;;;4.97;3.30;;;11.10;99.90;;;;;;4985234;28;20433;-93
2021/09/28 06:29:03;;;;;;;4.63;3.20;;;13.30;99.90;;;;;;4954033;28;20410;-95
2021/09/28 06:32:03;;;;;;;6.03;3.37;;;13.90;99.90;;;;;;4986210;28;20425;-94
2021/09/28 06:35:03;;;;;;;6.90;3.37;;;13.90;99.90;;;;;;4979599;28;20432;-94
2021/09/28 06:37:54;;;;;;;6.70;3.40;;;15.20;99.90;;;;;;4982394;28;20484;-93
2021/09/28 06:40:51;;;;;;;;;;;;;;;;;;;;;
2021/09/28 06:44:28;;;;;;;5.00;2.73;;;15.70;94.10;;;;;;4984834;28;20905;-92
2021/09/28 06:47:08;;;;;;;2.63;2.50;;;17.50;93.30;;;;;;4987777;28;20489;-93
2021/09/28 06:50:33;;;;;;;10.30;3.30;;;16.70;86.60;;;;;;4991590;28;20421;-94
2021/09/28 06:53:13;;;;;;;;;;;;;;;;;;;;;
2021/09/28 06:56:07;;;;;;;4.50;2.60;;;18.70;86.70;;;;;;4989258;28;20452;-93
2021/09/28 06:59:14;;;;;;;8.90;3.20;;;18.80;83.20;;;;;;4992886;28;20481;-95
2021/09/28 07:10:43;;;;;;;5.30;2.93;;;20.30;68.40;;;;;;5006287;28;20531;-93
2021/09/28 07:13:12;;;;;;;3.47;2.80;;;21.50;66.90;;;;;;5108260;23;20474;-90
2021/09/28 07:21:07;;;;;;;6.10;3.20;;;21.30;58.00;;;;;;5002899;28;20581;-93
2021/09/28 07:31:37;;;;;;;2.33;2.23;;;22.80;55.60;;;;;;5144383;23;20492;-93
2021/09/28 07:34:05;;;;;;;6.83;2.43;;;23.90;55.10;;;;;;4994912;28;20429;-94
2021/09/28 07:36:34;;;;;;;2.63;2.20;;;23.80;55.30;;;;;;4976202;28;20464;-92
2021/09/28 07:39:01;;;;;;;5.57;2.30;;;25.90;56.50;;;;;;5146835;23;20490;-90
2021/09/28 07:46:40;;;;;;;7.30;2.47;;;24.20;51.80;;;;;;5188290;23;20484;-92
2021/09/28 07:49:05;;;;;;;3.23;1.97;;;26.30;55.00;;;;;;4970512;28;20421;-91
2021/09/28 07:51:31;;;;;;;2.87;1.73;;;26.10;55.70;;;;;;4968496;28;20422;-93
2021/09/28 07:54:00;;;;;;;2.37;2.10;;;26.10;55.30;;;;;;4987815;28;20193;-91
2021/09/28 07:56:27;;;;;;;3.67;2.57;;;24.80;50.60;;;;;;4987552;28;20174;-90
2021/09/28 07:58:53;;;;;;;6.23;1.87;;;24.80;52.70;;;;;;4968772;28;20414;-88
2021/09/28 08:01:19;;;;;;;2.60;1.80;;;25.00;52.90;;;;;;4968786;28;20540;-91
2021/09/28 08:03:47;;;;;;;2.23;2.03;;;24.50;48.30;;;;;;4984832;28;20181;-91
2021/09/28 08:06:12;;;;;;;3.33;1.77;;;25.80;53.00;;;;;;4985084;28;20665;-91
2021/09/28 08:08:43;;;;;;;3.47;1.70;;;25.10;50.20;;;;;;4985555;28;20418;-91
2021/09/28 08:11:09;;;;;;;1.97;1.83;;;26.40;50.60;;;;;;4988270;28;20166;-93
2021/09/28 08:13:44;;;;;;;4.83;1.73;;;25.20;51.30;;;;;;4972105;28;20429;-92
2021/09/28 08:16:18;;;;;;;2.50;2.30;;;25.20;48.50;;;;;;4968400;28;20457;-91
2021/09/28 08:18:44;;;;;;;4.03;2.10;;;25.50;49.00;;;;;;4987228;28;20425;-91
2021/09/28 08:21:10;;;;;;;1.93;1.83;;;25.00;50.30;;;;;;4986997;28;20477;-91
2021/09/28 08:23:38;;;;;;;5.90;2.30;;;25.00;49.90;;;;;;4970602;28;20434;-91
2021/09/28 08:29:19;;;;;;;2.90;1.87;;;24.50;49.20;;;;;;4987138;28;20748;-90
2021/09/28 08:31:49;;;;;;;5.27;2.20;;;24.30;49.10;;;;;;4967006;28;20449;-92
2021/09/28 08:34:20;;;;;;;3.77;2.07;;;24.80;50.60;;;;;;4981739;28;20433;-91
2021/09/28 08:36:47;;;;;;;3.60;2.40;;;26.40;51.50;;;;;;4965783;28;20449;-93
2021/09/28 08:39:24;;;;;;;3.57;1.90;;;24.20;51.00;;;;;;4966354;28;20465;-90
2021/09/28 08:41:58;;;;;;;3.73;2.00;;;24.40;49.80;;;;;;4986182;28;20428;-90
2021/09/28 08:44:27;;;;;;;2.70;1.70;;;26.00;51.80;;;;;;4971471;28;20568;-90
2021/09/28 08:46:53;;;;;;;5.70;2.30;;;24.90;50.10;;;;;;4965228;28;20458;-90
2021/09/28 08:50:11;;;;;;;6.07;2.20;;;24.70;50.40;;;;;;4972446;28;20544;-91
2021/09/28 08:52:49;;;;;;;4.07;2.47;;;24.50;48.10;;;;;;4988890;28;20212;-89
2021/09/28 08:55:20;;;;;;;3.23;2.07;;;25.50;47.50;;;;;;4964031;28;20433;-92
2021/09/28 08:57:48;;;;;;;1.83;1.73;;;28.00;49.60;;;;;;4964935;28;20453;-92
2021/09/28 09:00:21;;;;;;;1.93;1.83;;;24.50;49.60;;;;;;4962674;28;20540;-92
2021/09/28 09:02:48;;;;;;;2.83;1.70;;;26.00;46.40;;;;;;4963288;28;20430;-93
2021/09/28 09:05:14;;;;;;;5.40;2.50;;;28.40;48.30;;;;;;4965754;28;20434;-90
2021/09/28 09:07:56;;;;;;;3.47;2.00;;;26.40;47.40;;;;;;4964592;28;20440;-88
2021/09/28 09:10:40;;;;;;;2.37;2.10;;;28.30;54.40;;;;;;4964441;28;20414;-90
2021/09/28 09:13:19;;;;;;;;;;;;;;;;;;;;;
2021/09/28 09:16:13;;;;;;;2.70;2.10;;;26.80;50.00;;;;;;4946753;29;20521;-90
2021/09/28 09:18:44;;;;;;;4.43;2.53;;;25.80;48.30;;;;;;4953756;29;20421;-89
2021/09/28 09:21:14;;;;;;;2.33;2.07;;;27.20;47.20;;;;;;4962899;28;20473;-91
2021/09/28 09:23:44;;;;;;;2.20;2.10;;;25.60;51.60;;;;;;4961224;28;20422;-93
2021/09/28 09:26:21;;;;;;;2.30;2.10;;;29.60;50.40;;;;;;4928840;29;20435;-88
2021/09/28 09:28:58;;;;;;;5.70;1.90;;;27.00;50.20;;;;;;4945878;29;20422;-90
2021/09/28 09:31:32;;;;;;;4.77;1.90;;;24.60;47.50;;;;;;4947860;29;20442;-91
2021/09/28 09:34:22;;;;;;;1.70;1.60;;;24.80;48.60;;;;;;4942099;29;20442;-88
2021/09/28 09:37:10;;;;;;;5.57;2.20;;;24.20;48.00;;;;;;4941348;29;20467;-89
2021/09/28 09:39:54;;;;;;;4.23;2.17;;;25.10;49.50;;;;;;4945695;29;20454;-91
2021/09/28 09:42:26;;;;;;;2.77;2.03;;;25.50;51.50;;;;;;4942708;29;20515;-88
2021/09/28 09:45:00;;;;;;;3.70;1.93;;;23.40;50.60;;;;;;4944314;29;20437;-90
2021/09/28 09:47:37;;;;;;;6.70;2.43;;;23.30;50.60;;;;;;4958431;28;20969;-91
2021/09/28 09:50:15;;;;;;;4.00;2.03;;;22.00;49.20;;;;;;4943700;29;20449;-89
2021/09/28 09:53:05;;;;;;;3.17;1.90;;;22.90;50.40;;;;;;4943485;29;20422;-86
2021/09/28 09:55:34;;;;;;;3.53;2.00;;;23.00;50.60;;;;;;4960381;28;20441;-89
2021/09/28 09:58:01;;;;;;;4.33;2.40;;;22.80;50.60;;;;;;4958337;28;20419;-83
2021/09/28 10:00:28;;;;;;;2.27;1.83;;;22.20;51.10;;;;;;4607334;28;9999791;-88
2021/09/28 10:02:54;;;;;;;2.13;2.00;;;23.40;53.30;;;;;;4976252;28;20220;-88
2021/09/28 10:05:20;;;;;;;6.03;1.67;;;21.00;51.00;;;;;;4975513;28;20421;-87
2021/09/28 10:07:49;;;;;;;5.00;2.17;;;22.30;51.70;;;;;;4964951;28;20882;-91
2021/09/28 10:10:17;;;;;;;4.13;1.77;;;22.20;51.20;;;;;;4940023;29;20266;-89
2021/09/28 10:12:43;;;;;;;4.80;2.20;;;24.40;52.70;;;;;;4955517;28;20970;-89
2021/09/28 10:15:12;;;;;;;5.60;1.93;;;23.70;53.00;;;;;;4956824;28;20453;-88
2021/09/28 10:17:46;;;;;;;6.17;2.47;;;22.10;52.50;;;;;;4965225;28;20236;-87
2021/09/28 10:20:23;;;;;;;4.73;2.30;;;21.40;51.80;;;;;;4963979;28;20477;-88
2021/09/28 10:23:00;;;;;;;5.87;2.83;;;23.00;52.60;;;;;;4979089;28;20457;-88
2021/09/28 10:25:36;;;;;;;5.00;2.00;;;23.50;51.00;;;;;;4970446;28;20445;-88
2021/09/28 10:28:07;;;;;;;2.60;2.40;;;23.70;50.30;;;;;;4958117;28;20536;-91
2021/09/28 10:30:36;;;;;;;3.67;2.30;;;24.20;49.60;;;;;;4960068;28;20988;-83
2021/09/28 10:33:13;;;;;;;12.00;3.33;;;24.10;50.40;;;;;;4959847;28;20976;-87
2021/09/28 10:36:18;;;;;;;6.77;2.00;;;24.20;49.20;;;;;;4979571;28;20413;-85
2021/09/28 10:39:00;;;;;;;3.80;2.10;;;25.10;50.50;;;;;;4950131;28;20451;-92
2021/09/28 10:42:14;;;;;;;4.43;2.30;;;24.00;50.30;;;;;;4978807;28;20432;-89
2021/09/28 10:44:47;;;;;;;4.90;2.07;;;23.50;49.50;;;;;;4903009;29;20508;-87
2021/09/28 10:48:09;;;;;;;3.53;2.23;;;26.80;51.20;;;;;;4954974;28;20528;-88
2021/09/28 10:56:53;;;;;;;1.93;1.83;;;24.40;51.70;;;;;;4962063;28;20418;-90
2021/09/28 10:59:48;;;;;;;5.33;2.03;;;26.50;51.50;;;;;;4980070;28;20563;-88
2021/09/28 11:05:59;;;;;;;3.40;2.50;;;24.10;48.50;;;;;;4919363;29;20478;-89
2021/09/28 11:08:55;;;;;;;4.60;2.37;;;27.10;49.70;;;;;;4939814;29;20481;-88
2021/09/28 11:11:27;;;;;;;2.30;2.10;;;24.40;48.30;;;;;;4920420;29;20423;-88
2021/09/28 11:14:06;;;;;;;3.60;1.40;;;24.60;48.40;;;;;;4962891;28;20421;-87
2021/09/28 11:17:03;;;;;;;2.67;2.37;;;25.10;48.20;;;;;;4962522;28;20964;-87
2021/09/28 11:23:12;;;;;;;3.53;1.80;;;25.20;48.30;;;;;;4906311;28;20428;-87
2021/09/28 11:29:18;;;;;;;3.03;1.93;;;23.70;47.30;;;;;;4904391;29;20567;-87
2021/09/28 11:31:44;;;;;;;2.30;2.00;;;26.10;50.30;;;;;;4952497;29;20791;-89
2021/09/28 11:37:40;;;;;;;4.10;1.60;;;25.00;48.80;;;;;;4912953;29;20437;-88
2021/09/28 11:40:17;;;;;;;8.37;2.20;;;25.00;47.10;;;;;;4940011;29;20954;-87
2021/09/28 11:42:45;;;;;;;3.10;2.03;;;26.10;49.10;;;;;;4940280;29;20759;-88
2021/09/28 11:45:42;;;;;;;4.63;2.50;;;26.70;49.80;;;;;;4940951;29;20442;-88
2021/09/28 11:48:41;;;;;;;2.50;2.30;;;24.60;49.00;;;;;;4942852;29;20421;-87
2021/09/28 11:51:11;;;;;;;2.43;1.70;;;24.10;47.40;;;;;;4953650;28;20418;-85
2021/09/28 11:53:45;;;;;;;7.63;1.93;;;24.50;47.80;;;;;;4962695;28;20798;-91
2021/09/28 11:56:59;;;;;;;;;;;;;;;;;;;;;
2021/09/28 12:00:25;;;;;;;7.53;2.40;;;24.30;48.30;;;;;;4893776;29;20525;-88
2021/09/28 12:02:39;;;;;;;3.80;2.27;;;24.00;47.40;;;;;;4962743;28;20448;-89
2021/09/28 12:08:27;;;;;;;5.30;2.50;;;23.70;49.10;;;;;;4901619;29;20428;-85
2021/09/28 12:10:54;;;;;;;6.17;1.73;;;24.60;49.70;;;;;;4902429;29;20460;-87
2021/09/28 12:13:50;;;;;;;5.30;2.43;;;25.20;50.30;;;;;;4885726;29;20185;-83
2021/09/28 12:16:45;;;;;;;;;;;;;;;;;;;;;
2021/09/28 12:19:24;;;;;;;2.23;1.97;;;22.80;47.30;;;;;;4911422;28;20521;-91
2021/09/28 12:22:30;;;;;;;7.00;2.60;;;24.00;50.10;;;;;;4982772;28;20427;-88
2021/09/28 12:24:59;;;;;;;2.10;2.00;;;24.90;50.70;;;;;;4979089;28;20893;-86
2021/09/28 12:27:26;;;;;;;4.10;2.70;;;24.30;49.70;;;;;;4965211;28;20531;-87
2021/09/28 12:29:59;;;;;;;4.30;2.30;;;23.50;49.70;;;;;;4983407;28;20494;-88
2021/09/28 12:32:56;;;;;;;14.33;7.20;;;23.70;48.50;;;;;;4966187;28;20947;-90
2021/09/28 12:35:47;;;;;;;;;;;;;;;;;;;;;
2021/09/28 12:38:29;;;;;;;;;;;;;;;;;;;;;
2021/09/28 12:41:35;;;;;;;4.93;1.80;;;23.50;49.20;;;;;;4979570;28;20518;-90
2021/09/28 12:44:30;;;;;;;4.20;2.10;;;25.70;50.80;;;;;;4985829;28;20449;-89
2021/09/28 12:47:51;;;;;;;;;;;;;;;;;;;;;
2021/09/28 12:50:59;;;;;;;;;;;;;;;;;;;;;
2021/09/28 12:53:58;;;;;;;5.77;2.90;;;24.20;49.80;;;;;;5021248;28;20454;-90
2021/09/28 12:56:56;;;;;;;;;;;;;;;;;;;;;
2021/09/28 13:06:30;;;;;;;4.40;2.20;;;23.30;49.10;;;;;;4914892;29;20428;-90
2021/09/28 13:09:04;;;;;;;5.13;2.87;;;23.30;50.00;;;;;;5023639;28;20978;-92
2021/09/28 13:11:48;;;;;;;4.03;2.87;;;23.30;48.90;;;;;;5005775;28;20879;-89
2021/09/28 13:17:20;;;;;;;5.90;2.70;;;23.00;49.60;;;;;;4953447;29;20430;-92
2021/09/28 13:23:46;;;;;;;2.63;2.40;;;23.20;49.60;;;;;;5030421;28;20400;-91
2021/09/28 13:26:45;;;;;;;6.20;3.10;;;20.70;47.30;;;;;;5012034;28;20491;-88
2021/09/28 13:32:51;;;;;;;3.93;2.13;;;24.40;49.80;;;;;;5028692;28;20403;-91
2021/09/28 13:36:21;;;;;;;4.23;3.47;;;25.50;48.80;;;;;;5024793;28;20428;-89
2021/09/28 13:39:35;;;;;;;;;;;;;;;;;;;;;
2021/09/28 13:42:40;;;;;;;;;;;;;;;;;;;;;
2021/09/28 13:45:14;;;;;;;;;;;;;;;;;;;;;
2021/09/28 13:51:30;;;;;;;5.23;2.93;;;23.90;47.10;;;;;;4857708;29;20542;-91
2021/09/28 13:54:19;;;;;;;2.90;2.60;;;24.00;46.40;;;;;;4837907;29;20447;-90
2021/09/28 13:56:47;;;;;;;5.07;2.80;;;24.40;46.70;;;;;;4900181;29;20804;-90
2021/09/28 13:59:16;;;;;;;4.93;2.53;;;24.80;48.00;;;;;;4929973;29;20448;-91
2021/09/28 14:02:09;;;;;;;5.50;3.10;;;24.40;47.90;;;;;;4949719;28;20502;-91
2021/09/28 14:05:00;;;;;;;9.70;3.60;;;24.10;46.60;;;;;;5006721;28;20432;-92
2021/09/28 14:07:30;;;;;;;5.83;2.40;;;24.00;46.60;;;;;;5005614;28;20424;-88
2021/09/28 14:09:55;;;;;;;5.80;2.37;;;24.20;46.80;;;;;;5005631;28;20867;-89
2021/09/28 14:12:43;;;;;;;;;;;;;;;;;;;;;
2021/09/28 14:15:33;;;;;;;2.27;1.70;;;25.30;46.20;;;;;;5006186;28;20439;-90
2021/09/28 14:18:00;;;;;;;2.77;2.50;;;23.70;46.00;;;;;;5005031;28;20463;-91
2021/09/28 14:20:26;;;;;;;1.93;1.83;;;25.30;48.30;;;;;;5009001;28;20511;-93
2021/09/28 14:22:58;;;;;;;4.60;2.10;;;23.40;46.40;;;;;;5003787;28;20412;-93
2021/09/28 14:25:34;;;;;;;2.43;2.30;;;23.70;46.10;;;;;;5003519;28;20492;-90
2021/09/28 14:27:59;;;;;;;2.77;2.03;;;23.20;46.00;;;;;;5007277;28;20515;-90
2021/09/28 14:39:22;;;;;;;2.43;1.80;;;22.50;48.10;;;;;;4959967;28;20279;-87
2021/09/28 14:41:51;;;;;;;1.60;1.50;;;22.70;48.80;;;;;;5001138;28;20426;-86
2021/09/28 14:44:26;;;;;;;;;;;;;;;;;;;;;
2021/09/28 14:46:55;;;;;;;2.63;1.97;;;22.90;49.20;;;;;;5002059;28;20423;-94
2021/09/28 14:49:20;;;;;;;3.33;2.00;;;22.10;48.10;;;;;;4999722;28;20425;-90
2021/09/28 14:51:46;;;;;;;3.03;1.50;;;21.40;50.00;;;;;;5004603;28;20459;-86
2021/09/28 14:54:13;;;;;;;1.63;1.50;;;22.20;50.70;;;;;;5004588;28;20176;-91
2021/09/28 14:56:41;;;;;;;1.87;1.77;;;21.40;48.30;;;;;;5003150;28;20184;-89
2021/09/28 14:59:14;;;;;;;2.13;1.83;;;21.30;49.50;;;;;;4986867;28;20456;-88
2021/09/28 15:01:42;;;;;;;5.57;1.90;;;21.80;49.90;;;;;;4984667;28;20441;-88
2021/09/28 15:04:08;;;;;;;6.17;2.80;;;21.80;49.10;;;;;;4981809;28;20544;-86
2021/09/28 15:06:34;;;;;;;5.10;1.77;;;23.10;49.70;;;;;;4984942;28;20418;-90
2021/09/28 15:09:00;;;;;;;3.87;1.60;;;21.00;48.70;;;;;;4984400;28;20162;-88
2021/09/28 15:11:27;;;;;;;4.33;1.30;;;22.60;48.70;;;;;;4986466;28;20190;-88
2021/09/28 15:13:52;;;;;;;3.67;1.80;;;20.70;47.10;;;;;;4968905;28;20241;-87
2021/09/28 15:16:19;;;;;;;3.83;1.60;;;21.50;48.60;;;;;;4988256;28;20424;-87
2021/09/28 15:18:47;;;;;;;2.30;1.50;;;22.40;49.40;;;;;;4983667;28;20206;-86
2021/09/28 15:21:15;;;;;;;1.73;1.57;;;21.20;50.40;;;;;;4986189;28;20465;-90
2021/09/28 15:23:44;;;;;;;6.87;2.27;;;22.00;50.50;;;;;;4988692;28;20429;-87
2021/09/28 15:26:10;;;;;;;2.03;1.83;;;20.40;50.30;;;;;;4986197;28;20974;-86
2021/09/28 15:28:35;;;;;;;7.43;1.40;;;21.50;51.40;;;;;;4987081;28;20162;-89
2021/09/28 15:31:06;;;;;;;1.20;1.20;;;20.90;50.20;;;;;;4984683;28;20185;-89
2021/09/28 15:33:37;;;;;;;2.30;1.77;;;20.70;48.90;;;;;;4970250;28;20184;-88
2021/09/28 15:36:04;;;;;;;3.40;2.10;;;21.50;50.40;;;;;;4993808;28;20437;-85
2021/09/28 15:38:53;;;;;;;1.43;1.10;;;20.00;50.30;;;;;;4994058;28;20475;-88
2021/09/28 15:41:21;;;;;;;1.87;1.77;;;20.10;50.10;;;;;;4986134;28;20480;-86
2021/09/28 15:43:54;;;;;;;4.17;1.73;;;19.70;51.00;;;;;;5003414;28;20487;-87
2021/09/28 15:46:39;;;;;;;1.30;1.30;;;19.90;51.70;;;;;;5002593;28;20483;-87
2021/09/28 15:49:05;;;;;;;7.57;3.90;;;20.00;53.30;;;;;;4985387;28;20475;-91
2021/09/28 15:51:32;;;;;;;4.30;1.40;;;19.90;53.60;;;;;;5016052;28;20419;-89
2021/09/28 15:53:59;;;;;;;1.33;1.33;;;19.80;53.80;;;;;;5003512;28;20176;-89
2021/09/28 15:56:25;;;;;;;26.93;22.50;;;20.80;53.60;;;;;;5023893;28;20420;-85
2021/09/28 15:58:59;;;;;;;2.50;2.40;;;19.90;53.70;;;;;;5021683;28;20427;-88
2021/09/28 16:01:27;;;;;;;1.57;1.47;;;21.00;54.80;;;;;;5023485;28;20474;-88
2021/09/28 16:03:56;;;;;;;4.10;1.80;;;19.70;54.60;;;;;;5008538;28;20895;-86
2021/09/28 16:06:30;;;;;;;8.57;2.80;;;21.10;55.10;;;;;;4994537;28;20488;-89
2021/09/28 16:08:57;;;;;;;1.80;1.70;;;21.00;56.10;;;;;;5026965;28;20408;-90
2021/09/28 16:11:30;;;;;;;3.33;1.67;;;18.10;53.60;;;;;;5008101;28;20420;-89
2021/09/28 16:13:58;;;;;;;2.43;1.90;;;21.30;56.80;;;;;;4994445;28;21066;-90
2021/09/28 16:16:23;;;;;;;4.17;1.63;;;19.70;55.00;;;;;;5012290;28;20458;-88
2021/09/28 16:18:49;;;;;;;4.50;2.00;;;20.40;56.60;;;;;;5021091;28;20431;-88
2021/09/28 16:21:25;;;;;;;5.80;1.50;;;20.20;56.00;;;;;;5009617;28;20223;-88
2021/09/28 16:23:52;;;;;;;3.03;1.70;;;19.10;54.40;;;;;;5028705;28;20176;-88
2021/09/28 16:26:26;;;;;;;2.17;1.90;;;18.90;55.50;;;;;;5013285;28;20440;-89
2021/09/28 16:28:57;;;;;;;2.40;1.63;;;18.90;54.30;;;;;;5000643;28;20474;-93
2021/09/28 16:31:24;;;;;;;3.70;1.57;;;18.80;55.60;;;;;;5027230;28;20424;-88
2021/09/28 16:33:56;;;;;;;2.33;2.13;;;20.30;56.60;;;;;;5008659;28;20435;-88
2021/09/28 16:36:23;;;;;;;9.07;3.23;;;19.30;56.30;;;;;;5010082;28;20534;-91
2021/09/28 16:38:52;;;;;;;2.13;1.90;;;18.60;56.50;;;;;;5026178;28;20470;-89
2021/09/28 16:41:18;;;;;;;1.57;1.47;;;18.50;57.40;;;;;;5027864;28;20479;-90
2021/09/28 16:43:56;;;;;;;1.40;1.40;;;19.50;57.30;;;;;;5028930;28;20430;-92
2021/09/28 16:46:29;;;;;;;4.60;1.93;;;18.70;55.90;;;;;;5013227;28;20450;-90
2021/09/28 16:48:57;;;;;;;2.73;1.60;;;19.80;58.80;;;;;;5012198;28;20415;-89
2021/09/28 16:51:25;;;;;;;4.70;1.90;;;18.40;58.20;;;;;;5029554;28;20437;-91
2021/09/28 16:53:55;;;;;;;2.63;1.90;;;17.00;57.20;;;;;;5011611;28;20432;-91
2021/09/28 16:56:24;;;;;;;9.03;1.67;;;18.10;57.40;;;;;;5011053;28;20435;-91
2021/09/28 16:58:53;;;;;;;7.37;2.60;;;19.80;60.80;;;;;;5008569;28;20468;-92
2021/09/28 17:01:25;;;;;;;3.53;2.00;;;18.70;57.10;;;;;;5010369;28;20907;-92
2021/09/28 17:03:50;;;;;;;2.50;1.80;;;19.40;58.70;;;;;;4994406;28;20488;-91
2021/09/28 17:06:16;;;;;;;8.73;2.00;;;19.20;59.60;;;;;;4991544;28;20432;-91
2021/09/28 17:08:43;;;;;;;1.30;1.30;;;17.90;59.20;;;;;;4990337;28;20173;-91
2021/09/28 17:11:16;;;;;;;2.33;1.33;;;17.60;57.90;;;;;;4992618;28;20456;-90
2021/09/28 17:13:42;;;;;;;2.20;2.00;;;19.10;62.70;;;;;;4990016;28;20891;-92
2021/09/28 17:16:07;;;;;;;2.93;2.00;;;17.50;59.90;;;;;;4990329;28;20436;-90
2021/09/28 17:18:37;;;;;;;3.83;2.57;;;19.10;59.80;;;;;;4993858;28;20416;-90
2021/09/28 17:21:06;;;;;;;2.40;1.63;;;17.30;59.70;;;;;;5000090;28;20208;-92
2021/09/28 17:23:31;;;;;;;1.83;1.73;;;16.90;60.10;;;;;;5006930;28;20802;-92
2021/09/28 17:25:57;;;;;;;3.83;1.50;;;17.10;61.50;;;;;;4988698;28;20420;-91
2021/09/28 17:28:23;;;;;;;8.50;7.83;;;16.80;62.90;;;;;;4993691;28;20563;-90
2021/09/28 17:30:49;;;;;;;3.50;2.93;;;17.00;62.60;;;;;;5007542;28;20409;-87
2021/09/28 17:33:15;;;;;;;2.27;2.07;;;17.50;66.60;;;;;;5008894;28;20173;-90
2021/09/28 17:35:47;;;;;;;3.53;1.70;;;16.60;69.00;;;;;;5010288;28;20424;-89
2021/09/28 17:38:13;;;;;;;4.20;1.77;;;16.60;66.80;;;;;;5009937;28;20638;-90
2021/09/28 17:40:45;;;;;;;2.33;1.70;;;17.60;68.90;;;;;;5010633;28;20479;-90
2021/09/28 17:43:17;;;;;;;2.63;2.23;;;16.30;73.30;;;;;;4995705;28;20196;-90
2021/09/28 17:45:47;;;;;;;2.87;2.67;;;16.10;71.20;;;;;;5013019;28;20421;-89
2021/09/28 17:48:13;;;;;;;3.83;3.50;;;16.20;67.10;;;;;;5009947;28;20409;-91
2021/09/28 17:50:39;;;;;;;5.20;2.67;;;16.20;71.80;;;;;;5007000;28;20532;-91
2021/09/28 17:53:09;;;;;;;6.10;2.80;;;17.80;75.30;;;;;;5003461;28;20432;-89
2021/09/28 17:55:41;;;;;;;2.80;2.60;;;17.50;76.30;;;;;;5005649;28;20412;-89
2021/09/28 17:58:08;;;;;;;6.80;2.47;;;17.00;76.10;;;;;;5008278;28;20921;-89
2021/09/28 18:00:43;;;;;;;5.57;4.97;;;17.60;78.60;;;;;;5008772;28;20466;-93
2021/09/28 18:03:11;;;;;;;6.43;3.10;;;15.60;77.40;;;;;;5010203;28;20423;-91
2021/09/28 18:05:39;;;;;;;5.10;2.63;;;15.50;83.20;;;;;;5006588;28;20428;-91
2021/09/28 18:08:08;;;;;;;8.50;3.30;;;15.50;83.10;;;;;;5009236;28;20423;-90
2021/09/28 18:10:34;;;;;;;4.37;3.10;;;15.60;85.50;;;;;;5029089;28;20503;-91
2021/09/28 18:13:04;;;;;;;5.70;3.37;;;15.70;88.50;;;;;;5015779;28;20423;-89
2021/09/28 18:15:31;;;;;;;9.43;4.00;;;15.10;87.80;;;;;;5010847;28;20208;-90
2021/09/28 18:18:00;;;;;;;4.03;3.63;;;16.60;91.30;;;;;;4995189;28;20422;-90
2021/09/28 18:20:26;;;;;;;5.43;2.37;;;15.10;88.00;;;;;;4997370;28;20482;-91
2021/09/28 18:22:53;;;;;;;3.40;3.20;;;17.30;93.10;;;;;;4997918;28;20424;-91
2021/09/28 18:25:33;;;;;;;2.80;2.27;;;16.90;91.90;;;;;;5014930;28;20504;-89
2021/09/28 18:28:01;;;;;;;3.23;2.80;;;14.80;91.70;;;;;;5017719;28;20412;-89
2021/09/28 18:30:57;;;;;;;6.07;2.63;;;16.00;93.60;;;;;;5019222;28;20415;-93
2021/09/28 18:33:40;;;;;;;5.90;2.83;;;15.40;92.80;;;;;;4990661;28;20470;-89
2021/09/28 18:36:08;;;;;;;3.07;2.80;;;15.20;93.60;;;;;;5027487;28;20418;-90
2021/09/28 18:38:34;;;;;;;7.50;3.30;;;14.50;93.50;;;;;;5017001;28;20467;-91